createdAt,value
2023-02-22T00:00:01.796Z,989.2511
2023-02-22T00:01:02.281Z,989.2009
2023-02-22T00:02:01.748Z,989.2648
2023-02-22T00:03:02.367Z,989.1371
2023-02-22T00:04:01.717Z,989.3501
2023-02-22T00:05:02.230Z,989.2865
2023-02-22T00:06:01.629Z,989.3789
2023-02-22T00:07:03.797Z,989.2078
2023-02-22T00:08:03.320Z,989.1154
2023-02-22T00:09:03.715Z,989.2648
2023-02-22T00:10:03.268Z,989.3355
2023-02-22T00:11:03.723Z,989.4143
2023-02-22T00:12:03.173Z,989.3287
2023-02-22T00:13:01.953Z,989.364
2023-02-22T00:14:01.486Z,989.2214
2023-02-22T00:15:01.879Z,989.2146
2023-02-22T00:16:01.473Z,989.1861
2023-02-22T00:17:01.875Z,989.2785
2023-02-22T00:18:02.999Z,989.3002
2023-02-22T00:19:01.812Z,989.3002
2023-02-22T00:20:03.963Z,989.2146
2023-02-22T00:21:01.847Z,989.2431
2023-02-22T00:22:02.289Z,989.3002
2023-02-22T00:23:03.399Z,989.1861
2023-02-22T00:24:03.877Z,989.293
2023-02-22T00:25:01.720Z,989.236
2023-02-22T00:26:02.222Z,989.1507
2023-02-22T00:27:01.626Z,989.1507
2023-02-22T00:28:03.802Z,989.2648
2023-02-22T00:29:01.639Z,989.1792
2023-02-22T00:30:03.806Z,989.2648
2023-02-22T00:31:01.572Z,989.2865
2023-02-22T00:32:02.122Z,989.3011
2023-02-22T00:33:01.564Z,989.3011
2023-02-22T00:34:03.720Z,989.3011
2023-02-22T00:35:01.478Z,989.0732
2023-02-22T00:36:01.979Z,989.1873
2023-02-22T00:37:03.106Z,989.3013
2023-02-22T00:38:03.642Z,989.2303
2023-02-22T00:39:01.406Z,989.1448
2023-02-22T00:40:03.554Z,989.2589
2023-02-22T00:41:01.391Z,989.2589
2023-02-22T00:42:03.576Z,989.1163
2023-02-22T00:43:01.308Z,989.1163
2023-02-22T00:44:01.793Z,989.0877
2023-02-22T00:45:02.279Z,989.1448
2023-02-22T00:46:01.750Z,989.0319
2023-02-22T00:47:03.883Z,989.0682
2023-02-22T00:48:01.718Z,989.1107
2023-02-22T00:49:03.889Z,989.1677
2023-02-22T00:50:03.313Z,989.2393
2023-02-22T00:51:02.116Z,989.0967
2023-02-22T00:52:01.662Z,989.2393
2023-02-22T00:53:02.127Z,989.2393
2023-02-22T00:54:01.552Z,989.089
2023-02-22T00:55:02.037Z,989.203
2023-02-22T00:56:03.160Z,989.1107
2023-02-22T00:57:03.751Z,989.1175
2023-02-22T00:58:01.475Z,989.1175
2023-02-22T00:59:01.960Z,989.1677
2023-02-22T01:00:01.480Z,988.9687
2023-02-22T01:01:02.031Z,989.004
2023-02-22T01:02:01.435Z,988.9405
2023-02-22T01:03:01.935Z,988.9687
2023-02-22T01:04:01.400Z,989.0257
2023-02-22T01:05:01.923Z,989.1537
2023-02-22T01:06:01.328Z,989.1181
2023-02-22T01:07:01.788Z,989.0542
2023-02-22T01:08:01.346Z,989.026
2023-02-22T01:09:03.480Z,989.1181
2023-02-22T01:10:02.272Z,989.0257
2023-02-22T01:11:01.720Z,989.0827
2023-02-22T01:12:03.992Z,989.1181
2023-02-22T01:13:01.724Z,989.0896
2023-02-22T01:14:02.194Z,989.0397
2023-02-22T01:15:01.640Z,989.0112
2023-02-22T01:16:02.204Z,988.9541
2023-02-22T01:17:01.643Z,988.9687
2023-02-22T01:18:03.804Z,989.026
2023-02-22T01:19:03.321Z,989.0827
2023-02-22T01:20:02.136Z,988.9687
2023-02-22T01:21:01.567Z,988.9975
2023-02-22T01:22:02.046Z,989.1686
2023-02-22T01:23:01.587Z,989.0121
2023-02-22T01:24:02.048Z,988.9265
2023-02-22T01:25:01.496Z,989.0257
2023-02-22T01:26:01.963Z,988.8835
2023-02-22T01:27:01.472Z,988.9051
2023-02-22T01:28:01.972Z,988.898
2023-02-22T01:29:01.480Z,988.9051
2023-02-22T01:30:01.951Z,988.841
2023-02-22T01:31:01.606Z,988.955
2023-02-22T01:32:01.957Z,988.8627
2023-02-22T01:33:03.135Z,988.7486
2023-02-22T01:34:01.891Z,988.8057
2023-02-22T01:35:01.320Z,988.7772
2023-02-22T01:36:01.791Z,988.784
2023-02-22T01:38:01.800Z,988.8912
2023-02-22T01:39:02.300Z,988.8057
2023-02-22T01:40:01.793Z,988.7486
2023-02-22T01:41:02.268Z,988.7772
2023-02-22T01:42:01.724Z,988.8627
2023-02-22T01:43:02.220Z,988.8057
2023-02-22T01:44:03.400Z,988.7133
2023-02-22T01:45:02.190Z,988.7567
2023-02-22T01:46:01.790Z,988.7852
2023-02-22T01:47:02.237Z,988.7567
2023-02-22T01:48:03.384Z,988.6427
2023-02-22T01:49:02.193Z,988.7567
2023-02-22T01:50:01.665Z,988.7567
2023-02-22T01:51:02.127Z,988.6073
2023-02-22T01:52:03.340Z,988.5856
2023-02-22T01:53:02.139Z,988.5856
2023-02-22T01:54:01.567Z,988.6997
2023-02-22T01:55:02.038Z,988.6427
2023-02-22T01:56:01.580Z,988.7567
2023-02-22T01:57:01.821Z,988.6712
2023-02-22T01:58:02.285Z,988.6997
2023-02-22T01:59:01.807Z,988.6427
2023-02-22T02:00:03.946Z,988.6712
2023-02-22T02:01:01.712Z,988.6997
2023-02-22T02:02:03.890Z,988.5856
2023-02-22T02:03:01.728Z,988.5571
2023-02-22T02:04:02.267Z,988.5571
2023-02-22T02:05:01.660Z,988.5286
2023-02-22T02:06:02.101Z,988.5286
2023-02-22T02:07:03.317Z,988.5286
2023-02-22T02:08:03.806Z,988.5571
2023-02-22T02:09:01.560Z,988.5286
2023-02-22T02:10:02.049Z,988.5286
2023-02-22T02:11:03.162Z,988.5286
2023-02-22T02:12:01.950Z,988.5286
2023-02-22T02:13:01.480Z,988.5286
2023-02-22T02:14:01.991Z,988.5286
2023-02-22T02:15:01.397Z,988.6073
2023-02-22T02:16:01.881Z,988.5286
2023-02-22T02:17:01.583Z,988.5286
2023-02-22T02:18:01.893Z,988.6346
2023-02-22T02:19:03.029Z,988.4065
2023-02-22T02:20:01.799Z,988.3919
2023-02-22T02:21:02.274Z,988.4133
2023-02-22T02:22:01.797Z,988.3919
2023-02-22T02:23:02.281Z,988.6699
2023-02-22T02:24:01.705Z,988.378
2023-02-22T02:25:03.896Z,988.6699
2023-02-22T02:26:01.720Z,988.6699
2023-02-22T02:27:03.875Z,988.2992
2023-02-22T02:28:01.634Z,988.378
2023-02-22T02:29:02.118Z,988.4269
2023-02-22T02:30:01.646Z,988.3129
2023-02-22T02:31:03.849Z,988.4557
2023-02-22T02:32:01.921Z,988.541
2023-02-22T02:33:02.034Z,988.3699
2023-02-22T02:34:01.589Z,988.4839
2023-02-22T02:35:02.038Z,988.4489
2023-02-22T02:36:01.480Z,988.7124
2023-02-22T02:37:01.967Z,988.2639
2023-02-22T02:38:01.481Z,988.321
2023-02-22T02:39:03.657Z,988.6346
2023-02-22T02:40:01.428Z,988.378
2023-02-22T02:41:01.881Z,988.2924
2023-02-22T02:42:03.080Z,988.378
2023-02-22T02:43:01.875Z,988.5993
2023-02-22T02:44:01.309Z,988.3291
2023-02-22T02:45:01.819Z,988.2535
2023-02-22T02:46:02.277Z,988.5286
2023-02-22T02:47:03.472Z,988.272
2023-02-22T02:48:03.881Z,988.5286
2023-02-22T02:49:01.746Z,988.378
2023-02-22T02:50:03.881Z,988.5286
2023-02-22T02:51:01.634Z,988.3997
2023-02-22T02:52:02.125Z,988.5286
2023-02-22T02:53:01.648Z,988.5286
2023-02-22T02:54:03.827Z,988.5286
2023-02-22T02:55:01.548Z,988.5286
2023-02-22T02:56:02.991Z,988.272
2023-02-22T02:57:02.835Z,988.1965
2023-02-22T02:58:02.191Z,988.1612
2023-02-22T02:59:01.718Z,988.2938
2023-02-22T03:00:02.204Z,988.5286
2023-02-22T03:01:03.316Z,988.2467
2023-02-22T03:02:02.111Z,988.2938
2023-02-22T03:03:01.653Z,988.4933
2023-02-22T03:04:02.120Z,988.3223
2023-02-22T03:05:01.584Z,988.458
2023-02-22T03:06:03.713Z,988.0974
2023-02-22T03:07:01.573Z,988.1829
2023-02-22T03:08:03.638Z,988.4933
2023-02-22T03:09:01.469Z,988.2114
2023-02-22T03:10:01.979Z,988.2331
2023-02-22T03:11:01.394Z,988.2467
2023-02-22T03:12:01.876Z,988.1327
2023-02-22T03:13:01.313Z,988.2535
2023-02-22T03:14:01.797Z,988.2671
2023-02-22T03:16:01.884Z,988.1748
2023-02-22T03:17:02.280Z,988.1314
2023-02-22T03:18:01.715Z,988.1029
2023-02-22T03:19:03.960Z,988.1599
2023-02-22T03:20:01.796Z,988.0811
2023-02-22T03:21:02.190Z,988.1029
2023-02-22T03:22:03.317Z,988.1097
2023-02-22T03:23:03.820Z,988.2308
2023-02-22T03:24:01.650Z,988.1236
2023-02-22T03:25:02.212Z,988.1738
2023-02-22T03:26:03.240Z,988.2169
2023-02-22T03:27:02.063Z,988.1599
2023-02-22T03:28:03.233Z,988.1816
2023-02-22T03:29:02.046Z,988.0961
2023-02-22T03:30:01.523Z,987.9969
2023-02-22T03:31:02.156Z,988.054
2023-02-22T03:32:03.200Z,988.2169
2023-02-22T03:33:01.993Z,988.0825
2023-02-22T03:34:01.453Z,988.168
2023-02-22T03:35:03.600Z,988.054
2023-02-22T03:36:01.398Z,988.0255
2023-02-22T03:37:01.875Z,988.168
2023-02-22T03:38:01.321Z,988.0404
2023-02-22T03:39:01.804Z,988.168
2023-02-22T03:40:02.287Z,988.168
2023-02-22T03:41:01.815Z,988.0404
2023-02-22T03:42:02.288Z,988.0825
2023-02-22T03:43:03.426Z,988.168
2023-02-22T03:44:03.906Z,988.2467
2023-02-22T03:45:01.768Z,988.2114
2023-02-22T03:46:02.246Z,988.2182
2023-02-22T03:47:03.320Z,988.2535
2023-02-22T03:48:02.159Z,988.0974
2023-02-22T03:49:01.657Z,988.0757
2023-02-22T03:50:03.793Z,988.168
2023-02-22T03:51:03.243Z,988.1188
2023-02-22T03:52:02.060Z,988.0472
2023-02-22T03:53:01.565Z,988.2535
2023-02-22T03:54:02.064Z,988.5286
2023-02-22T03:55:01.485Z,988.1829
2023-02-22T03:56:02.934Z,988.2182
2023-02-22T03:57:01.650Z,988.0903
2023-02-22T03:58:02.123Z,988.2182
2023-02-22T03:59:01.650Z,988.1327
2023-02-22T04:00:02.160Z,988.2114
2023-02-22T04:01:03.234Z,988.458
2023-02-22T04:02:02.056Z,988.1693
2023-02-22T04:03:01.559Z,988.1978
2023-02-22T04:04:01.966Z,988.3803
2023-02-22T04:05:01.580Z,988.3874
2023-02-22T04:06:03.645Z,988.1337
2023-02-22T04:07:03.093Z,988.1337
2023-02-22T04:08:01.893Z,988.1622
2023-02-22T04:09:01.323Z,988.3449
2023-02-22T04:10:01.826Z,988.1907
2023-02-22T04:11:02.288Z,988.0984
2023-02-22T04:12:01.732Z,987.9779
2023-02-22T04:13:02.230Z,988.3449
2023-02-22T04:14:01.730Z,988.1978
2023-02-22T04:15:02.211Z,988.3449
2023-02-22T04:16:01.670Z,988.1337
2023-02-22T04:17:03.801Z,988.2633
2023-02-22T04:18:01.677Z,988.0638
2023-02-22T04:19:02.165Z,988.0923
2023-02-22T04:20:01.587Z,987.9643
2023-02-22T04:21:02.053Z,988.2562
2023-02-22T04:22:01.566Z,988.2209
2023-02-22T04:23:02.065Z,987.9779
2023-02-22T04:24:01.527Z,987.9996
2023-02-22T04:25:01.981Z,988.0634
2023-02-22T04:26:01.501Z,988.1622
2023-02-22T04:27:01.964Z,988.0349
2023-02-22T04:28:01.418Z,988.0482
2023-02-22T04:29:01.915Z,988.1554
2023-02-22T04:30:01.425Z,987.9212
2023-02-22T04:31:01.934Z,988.1839
2023-02-22T04:32:01.355Z,988.3803
2023-02-22T04:33:01.816Z,988.0414
2023-02-22T04:34:02.278Z,988.3803
2023-02-22T04:35:01.840Z,988.0349
2023-02-22T04:36:02.274Z,987.8727
2023-02-22T04:37:03.405Z,988.0634
2023-02-22T04:38:03.896Z,988.0068
2023-02-22T04:39:01.743Z,987.9141
2023-02-22T04:40:03.952Z,987.9857
2023-02-22T04:41:01.650Z,988.0142
2023-02-22T04:42:02.136Z,988.0142
2023-02-22T04:43:03.329Z,987.9572
2023-02-22T04:44:02.132Z,987.9287
2023-02-22T04:45:03.282Z,988.2137
2023-02-22T04:46:03.807Z,988.0142
2023-02-22T04:47:01.575Z,987.8453
2023-02-22T04:48:02.047Z,987.867
2023-02-22T04:49:01.483Z,988.115
2023-02-22T04:50:01.972Z,988.115
2023-02-22T04:51:01.517Z,988.115
2023-02-22T04:52:01.961Z,987.9508
2023-02-22T04:53:01.417Z,987.9572
2023-02-22T04:54:03.585Z,987.929
2023-02-22T04:55:03.076Z,987.8517
2023-02-22T04:56:01.932Z,987.9572
2023-02-22T04:57:03.013Z,987.8805
2023-02-22T04:58:01.820Z,987.8453
2023-02-22T04:59:02.297Z,988.1503
2023-02-22T05:00:03.491Z,987.9223
2023-02-22T05:01:02.318Z,987.795
2023-02-22T05:02:01.800Z,987.9223
2023-02-22T05:03:02.206Z,987.867
2023-02-22T05:04:01.729Z,987.8246
2023-02-22T05:05:02.343Z,987.7957
2023-02-22T05:06:03.356Z,987.7391
2023-02-22T05:07:02.123Z,987.7102
2023-02-22T05:08:03.325Z,987.6251
2023-02-22T05:09:02.234Z,987.7815
2023-02-22T05:10:01.584Z,987.7245
2023-02-22T05:11:02.045Z,987.696
2023-02-22T05:12:01.581Z,987.639
2023-02-22T05:13:04.027Z,987.5328
2023-02-22T05:14:03.169Z,987.7245
2023-02-22T05:15:03.629Z,987.7102
2023-02-22T05:16:01.506Z,987.8385
2023-02-22T05:17:01.984Z,987.7323
2023-02-22T05:18:01.413Z,987.8242
2023-02-22T05:19:01.883Z,987.6532
2023-02-22T05:20:01.403Z,987.7893
2023-02-22T05:21:03.569Z,987.6753
2023-02-22T05:22:01.405Z,987.7038
2023-02-22T05:23:01.892Z,987.9948
2023-02-22T05:25:01.817Z,987.6468
2023-02-22T05:26:02.284Z,987.7961
2023-02-22T05:27:03.496Z,987.5328
2023-02-22T05:28:02.272Z,987.7957
2023-02-22T05:29:01.719Z,987.5898
2023-02-22T05:30:03.880Z,987.6251
2023-02-22T05:31:01.751Z,987.6468
2023-02-22T05:32:02.298Z,987.6468
2023-02-22T05:33:01.758Z,987.5613
2023-02-22T05:34:03.873Z,987.6821
2023-02-22T05:35:01.630Z,987.5898
2023-02-22T05:36:02.119Z,987.6753
2023-02-22T05:37:01.672Z,987.6468
2023-02-22T05:38:03.806Z,987.5898
2023-02-22T05:39:03.233Z,987.7102
2023-02-22T05:40:02.032Z,987.6468
2023-02-22T05:41:03.232Z,987.7038
2023-02-22T05:42:02.041Z,987.5043
2023-02-22T05:43:01.495Z,987.5898
2023-02-22T05:44:01.977Z,987.5613
2023-02-22T05:45:01.475Z,987.4826
2023-02-22T05:46:03.635Z,987.5962
2023-02-22T05:47:03.076Z,987.5962
2023-02-22T05:48:01.864Z,987.5043
2023-02-22T05:49:01.456Z,987.582
2023-02-22T05:50:01.890Z,987.6251
2023-02-22T05:51:02.988Z,987.6468
2023-02-22T05:52:01.892Z,987.5681
2023-02-22T05:53:01.342Z,987.5966
2023-02-22T05:54:01.820Z,987.5392
2023-02-22T05:56:04.655Z,987.6675
2023-02-22T05:57:03.083Z,987.525
2023-02-22T05:58:03.557Z,987.6532
2023-02-22T05:59:02.995Z,987.5392
2023-02-22T06:00:01.798Z,987.6468
2023-02-22T06:01:03.395Z,987.5677
2023-02-22T06:02:01.857Z,987.4826
2023-02-22T06:03:02.271Z,987.6675
2023-02-22T06:04:01.720Z,987.5888
2023-02-22T06:05:02.215Z,987.7245
2023-02-22T06:06:01.712Z,987.582
2023-02-22T06:07:02.220Z,987.5667
2023-02-22T06:08:01.630Z,987.5952
2023-02-22T06:09:02.140Z,987.6522
2023-02-22T06:10:01.827Z,987.4965
2023-02-22T06:11:02.122Z,987.567
2023-02-22T06:12:01.545Z,987.5955
2023-02-22T06:13:02.042Z,987.5097
2023-02-22T06:14:03.149Z,987.5097
2023-02-22T06:15:01.975Z,987.6661
2023-02-22T06:16:01.507Z,987.6091
2023-02-22T06:17:01.972Z,987.5521
2023-02-22T06:18:01.396Z,987.6376
2023-02-22T06:19:01.885Z,987.6308
2023-02-22T06:20:01.408Z,987.6593
2023-02-22T06:21:01.916Z,987.6807
2023-02-22T06:22:01.356Z,987.5453
2023-02-22T06:23:01.798Z,987.5806
2023-02-22T06:24:02.393Z,987.5521
2023-02-22T06:25:01.825Z,987.6023
2023-02-22T06:26:03.966Z,987.7299
2023-02-22T06:27:03.434Z,987.6793
2023-02-22T06:28:02.198Z,987.5307
2023-02-22T06:29:01.629Z,987.6576
2023-02-22T06:30:02.210Z,987.6223
2023-02-22T06:31:01.642Z,987.7078
2023-02-22T06:32:02.263Z,987.6576
2023-02-22T06:33:03.277Z,987.7716
2023-02-22T06:34:03.714Z,987.6861
2023-02-22T06:35:01.588Z,987.6362
2023-02-22T06:36:02.088Z,987.7282
2023-02-22T06:37:01.484Z,987.5928
2023-02-22T06:38:03.639Z,987.6484
2023-02-22T06:39:01.393Z,987.7489
2023-02-22T06:40:05.517Z,987.7489
2023-02-22T06:41:01.437Z,987.6063
2023-02-22T06:42:01.946Z,987.6837
2023-02-22T06:43:01.326Z,987.6905
2023-02-22T06:44:01.796Z,987.6759
2023-02-22T06:45:02.289Z,987.7611
2023-02-22T06:46:03.541Z,987.7672
2023-02-22T06:47:02.278Z,988.0425
2023-02-22T06:48:01.726Z,987.7088
2023-02-22T06:49:02.214Z,987.8514
2023-02-22T06:50:01.737Z,987.8514
2023-02-22T06:51:02.213Z,987.7797
2023-02-22T06:52:01.651Z,987.8079
2023-02-22T06:53:02.112Z,987.8504
2023-02-22T06:54:03.314Z,987.7363
2023-02-22T06:55:02.154Z,987.9339
2023-02-22T06:56:01.652Z,987.8422
2023-02-22T06:57:02.066Z,987.8639
2023-02-22T06:58:01.564Z,987.8422
2023-02-22T06:59:02.870Z,987.6928
2023-02-22T07:00:01.518Z,987.9329
2023-02-22T07:01:01.978Z,987.9967
2023-02-22T07:02:01.504Z,987.8412
2023-02-22T07:03:02.042Z,987.8765
2023-02-22T07:04:03.074Z,987.8548
2023-02-22T07:05:01.907Z,987.776
2023-02-22T07:06:01.411Z,987.8252
2023-02-22T07:07:01.925Z,987.7746
2023-02-22T07:08:01.327Z,987.8167
2023-02-22T07:09:01.806Z,987.8167
2023-02-22T07:10:02.317Z,987.8167
2023-02-22T07:11:01.827Z,987.8592
2023-02-22T07:12:02.296Z,988.0287
2023-02-22T07:13:01.742Z,987.9145
2023-02-22T07:14:03.944Z,987.9713
2023-02-22T07:15:01.728Z,988.0205
2023-02-22T07:16:02.350Z,988.0205
2023-02-22T07:17:03.332Z,988.0912
2023-02-22T07:18:02.195Z,987.8782
2023-02-22T07:19:01.657Z,987.9407
2023-02-22T07:20:02.122Z,987.9407
2023-02-22T07:21:01.663Z,987.7845
2023-02-22T07:22:02.131Z,987.884
2023-02-22T07:23:01.648Z,987.8405
2023-02-22T07:24:03.979Z,988.0811
2023-02-22T07:25:01.581Z,987.9669
2023-02-22T07:26:02.044Z,987.9384
2023-02-22T07:27:01.562Z,987.9944
2023-02-22T07:28:02.036Z,987.8602
2023-02-22T07:29:01.567Z,987.7814
2023-02-22T07:30:02.050Z,988.0145
2023-02-22T07:31:03.173Z,987.9785
2023-02-22T07:32:01.979Z,987.8439
2023-02-22T07:33:01.552Z,987.8647
2023-02-22T07:34:01.968Z,987.8212
2023-02-22T07:35:01.388Z,988.0543
2023-02-22T07:36:01.899Z,988.0258
2023-02-22T07:37:01.388Z,987.9115
2023-02-22T07:38:01.887Z,987.9323
2023-02-22T07:39:01.395Z,987.9959
2023-02-22T07:40:01.899Z,987.9173
2023-02-22T07:41:03.021Z,987.8688
2023-02-22T07:42:01.798Z,987.8824
2023-02-22T07:43:05.932Z,988.0384
2023-02-22T07:44:01.807Z,988.052
2023-02-22T07:45:02.273Z,987.9585
2023-02-22T07:46:01.743Z,988.0292
2023-02-22T07:47:02.229Z,987.8586
2023-02-22T07:48:03.393Z,987.8871
2023-02-22T07:49:02.177Z,988.148
2023-02-22T07:50:03.440Z,987.9766
2023-02-22T07:51:02.188Z,988.1045
2023-02-22T07:52:01.696Z,987.997
2023-02-22T07:53:02.212Z,988.0038
2023-02-22T07:54:01.627Z,988.0463
2023-02-22T07:55:02.112Z,988.0109
2023-02-22T07:56:03.322Z,987.8045
2023-02-22T07:57:02.134Z,987.8324
2023-02-22T07:58:01.565Z,987.7956
2023-02-22T07:59:02.028Z,987.8242
2023-02-22T08:00:01.574Z,987.9283
2023-02-22T08:01:01.959Z,987.9205
2023-02-22T08:02:01.526Z,987.8855
2023-02-22T08:03:01.971Z,987.9123
2023-02-22T08:04:03.070Z,987.9545
2023-02-22T08:05:01.902Z,987.8052
2023-02-22T08:06:01.404Z,987.8052
2023-02-22T08:07:01.905Z,987.9246
2023-02-22T08:09:01.808Z,987.8181
2023-02-22T08:10:02.280Z,987.958
2023-02-22T08:11:01.816Z,987.8235
2023-02-22T08:12:02.196Z,987.7377
2023-02-22T08:13:03.392Z,987.8372
2023-02-22T08:14:02.205Z,987.8579
2023-02-22T08:15:01.637Z,988.0128
2023-02-22T08:16:03.835Z,987.8133
2023-02-22T08:17:01.606Z,987.7983
2023-02-22T08:18:03.802Z,987.8688
2023-02-22T08:19:01.590Z,987.8324
2023-02-22T08:20:02.035Z,987.9587
2023-02-22T08:21:01.485Z,987.8164
2023-02-22T08:22:03.645Z,987.8804
2023-02-22T08:23:01.476Z,987.8723
2023-02-22T08:24:01.969Z,987.8205
2023-02-22T08:25:01.412Z,987.9894
2023-02-22T08:26:01.882Z,987.7254
2023-02-22T08:27:03.083Z,987.7888
2023-02-22T08:28:03.556Z,987.7437
2023-02-22T08:29:02.998Z,987.9274
2023-02-22T08:30:01.802Z,987.7928
2023-02-22T08:31:02.293Z,987.8065
2023-02-22T08:32:01.967Z,987.8556
2023-02-22T08:33:02.464Z,987.9765
2023-02-22T08:34:03.394Z,987.7986
2023-02-22T08:35:02.419Z,987.9319
2023-02-22T08:36:03.413Z,987.8317
2023-02-22T08:37:02.228Z,987.7379
2023-02-22T08:38:03.332Z,987.787
2023-02-22T08:39:02.126Z,987.978
2023-02-22T08:40:03.334Z,987.9206
2023-02-22T08:41:02.129Z,987.9206
2023-02-22T08:42:01.567Z,988.0626
2023-02-22T08:43:03.725Z,987.7618
2023-02-22T08:44:01.489Z,987.8106
2023-02-22T08:45:01.968Z,987.7887
2023-02-22T08:46:01.528Z,987.9442
2023-02-22T08:47:01.965Z,987.8013
2023-02-22T08:48:03.083Z,987.814
2023-02-22T08:49:01.876Z,987.8061
2023-02-22T08:50:01.331Z,987.7634
2023-02-22T08:51:01.833Z,987.7337
2023-02-22T08:52:02.287Z,987.7187
2023-02-22T08:53:01.885Z,987.7815
2023-02-22T08:54:03.957Z,987.7658
2023-02-22T08:55:02.706Z,987.8437
2023-02-22T08:56:01.403Z,987.8
2023-02-22T08:57:01.906Z,987.707
2023-02-22T08:58:01.461Z,987.8
2023-02-22T08:59:01.878Z,987.8628
2023-02-22T09:00:01.320Z,987.8765
2023-02-22T09:01:01.799Z,987.7456
2023-02-22T09:02:03.996Z,987.5734
2023-02-22T09:03:01.821Z,987.7535
2023-02-22T09:04:02.322Z,987.8604
2023-02-22T09:05:01.716Z,987.8304
2023-02-22T09:06:02.220Z,987.7353
2023-02-22T09:07:01.717Z,987.6399
2023-02-22T09:08:03.871Z,987.8163
2023-02-22T09:09:01.685Z,987.6556
2023-02-22T09:10:03.788Z,988.0006
2023-02-22T09:11:01.642Z,987.7609
2023-02-22T09:12:02.121Z,987.7362
2023-02-22T09:13:01.731Z,987.8502
2023-02-22T09:14:02.039Z,987.6982
2023-02-22T09:15:03.251Z,987.7283
2023-02-22T09:16:03.743Z,987.802
2023-02-22T09:17:01.464Z,987.6157
2023-02-22T09:18:01.994Z,987.7078
2023-02-22T09:19:01.481Z,987.6855
2023-02-22T09:20:03.631Z,987.6133
2023-02-22T09:21:03.151Z,987.7595
2023-02-22T09:22:01.951Z,987.6459
2023-02-22T09:23:01.421Z,987.7321
2023-02-22T09:24:01.864Z,987.6732
2023-02-22T09:25:15.907Z,987.6787
2023-02-22T09:26:03.551Z,987.6352
2023-02-22T09:27:01.308Z,987.6708
2023-02-22T09:28:01.813Z,987.6917
2023-02-22T09:29:02.301Z,987.74
2023-02-22T09:30:01.858Z,987.6238
2023-02-22T09:31:02.275Z,987.7584
2023-02-22T09:32:01.857Z,987.7499
2023-02-22T09:33:04.000Z,987.5747
2023-02-22T09:34:04.189Z,987.6323
2023-02-22T09:35:03.864Z,987.6597
2023-02-22T09:36:01.689Z,987.5373
2023-02-22T09:37:02.206Z,987.5744
2023-02-22T09:38:01.632Z,987.7855
2023-02-22T09:39:02.129Z,987.5552
2023-02-22T09:40:01.873Z,987.5361
2023-02-22T09:41:03.818Z,987.74
2023-02-22T09:42:01.606Z,987.6536
2023-02-22T09:43:03.708Z,987.6238
2023-02-22T09:44:01.559Z,987.7499
2023-02-22T09:45:02.085Z,987.6265
2023-02-22T09:46:01.600Z,987.5744
2023-02-22T09:47:02.090Z,987.5654
2023-02-22T09:48:11.711Z,987.4204
2023-02-22T09:49:01.960Z,987.5057
2023-02-22T09:50:03.149Z,987.4834
2023-02-22T09:51:01.945Z,987.4673
2023-02-22T09:52:01.409Z,987.6881
2023-02-22T09:53:01.957Z,987.4267
2023-02-22T09:54:01.409Z,987.5614
2023-02-22T09:55:02.026Z,987.6684
2023-02-22T09:56:03.120Z,987.3939
2023-02-22T09:57:01.933Z,987.5727
2023-02-22T09:58:03.114Z,987.4851
2023-02-22T09:59:01.817Z,987.4271
2023-02-22T10:00:02.297Z,987.435
2023-02-22T10:01:01.799Z,987.3698
2023-02-22T10:02:02.304Z,987.3914
2023-02-22T10:03:01.709Z,987.3752
2023-02-22T10:04:02.337Z,987.4892
2023-02-22T10:05:01.746Z,987.5493
2023-02-22T10:06:02.219Z,987.3396
2023-02-22T10:07:01.747Z,987.518
2023-02-22T10:08:02.190Z,987.4041
2023-02-22T10:09:03.305Z,987.3695
2023-02-22T10:10:02.131Z,987.2981
2023-02-22T10:11:01.559Z,987.4711
2023-02-22T10:12:02.045Z,987.5013
2023-02-22T10:13:01.554Z,987.5899
2023-02-22T10:14:02.034Z,987.3377
2023-02-22T10:15:01.481Z,987.2938
2023-02-22T10:16:01.985Z,987.3709
2023-02-22T10:17:01.476Z,987.305
2023-02-22T10:18:01.962Z,987.345
2023-02-22T10:19:03.091Z,987.3079
2023-02-22T10:20:01.889Z,987.4521
2023-02-22T10:21:01.330Z,987.3713
2023-02-22T10:22:01.791Z,987.363
2023-02-22T10:23:02.270Z,987.2534
2023-02-22T10:24:01.731Z,987.2949
2023-02-22T10:25:02.277Z,987.2509
2023-02-22T10:26:01.728Z,987.4226
2023-02-22T10:27:02.259Z,987.2116
2023-02-22T10:28:03.320Z,987.3526
2023-02-22T10:29:03.933Z,987.4207
2023-02-22T10:30:03.941Z,987.3068
2023-02-22T10:31:02.340Z,987.3411
2023-02-22T10:32:01.720Z,987.2094
2023-02-22T10:33:03.778Z,987.3223
2023-02-22T10:34:01.557Z,987.4515
2023-02-22T10:35:02.062Z,987.4724
2023-02-22T10:36:01.526Z,987.2116
2023-02-22T10:37:01.969Z,987.3173
2023-02-22T10:38:01.492Z,987.1582
2023-02-22T10:39:02.011Z,987.2296
2023-02-22T10:40:01.415Z,987.1694
2023-02-22T10:41:03.594Z,987.2639
2023-02-22T10:42:03.005Z,987.1181
2023-02-22T10:43:01.899Z,987.1748
2023-02-22T10:44:01.345Z,987.0874
2023-02-22T10:45:01.811Z,987.1307
2023-02-22T10:46:04.065Z,987.2755
2023-02-22T10:47:01.811Z,987.1946
2023-02-22T10:48:02.313Z,987.1423
2023-02-22T10:49:03.410Z,987.1495
2023-02-22T10:50:02.212Z,987.1906
2023-02-22T10:51:01.722Z,987.2759
2023-02-22T10:52:02.220Z,987.0697
2023-02-22T10:53:01.700Z,987.1477
2023-02-22T10:54:03.124Z,987.2401
2023-02-22T10:55:14.631Z,987.0667
2023-02-22T10:56:02.361Z,987.0556
2023-02-22T10:57:01.819Z,987.0571
2023-02-22T10:58:03.887Z,987.0813
2023-02-22T10:59:03.445Z,986.9289
2023-02-22T11:00:02.201Z,986.9993
2023-02-22T11:01:01.747Z,986.9567
2023-02-22T11:02:02.196Z,986.8712
2023-02-22T11:03:01.647Z,986.9845
2023-02-22T11:04:03.799Z,986.983
2023-02-22T11:05:01.619Z,986.9801
2023-02-22T11:06:02.125Z,986.8919
2023-02-22T11:07:01.579Z,987.0436
2023-02-22T11:08:02.056Z,986.8208
2023-02-22T11:09:01.558Z,986.9569
2023-02-22T11:10:02.040Z,986.8413
2023-02-22T11:11:01.475Z,986.8208
2023-02-22T11:12:01.956Z,987.031
2023-02-22T11:13:01.482Z,986.9512
2023-02-22T11:14:01.962Z,986.76
2023-02-22T11:15:01.402Z,987.0316
2023-02-22T11:16:01.952Z,986.9171
2023-02-22T11:17:01.433Z,986.8467
2023-02-22T11:18:01.937Z,986.7878
2023-02-22T11:19:03.001Z,986.7299
2023-02-22T11:20:01.794Z,986.7299
2023-02-22T11:21:02.281Z,986.7588
2023-02-22T11:22:01.722Z,986.7299
2023-02-22T11:23:02.298Z,986.8456
2023-02-22T11:24:01.720Z,986.6596
2023-02-22T11:25:02.501Z,986.722
2023-02-22T11:26:01.717Z,986.6543
2023-02-22T11:27:02.224Z,986.7699
2023-02-22T11:28:01.645Z,986.7566
2023-02-22T11:29:02.139Z,986.7022
2023-02-22T11:30:01.640Z,986.7972
2023-02-22T11:31:02.194Z,986.5934
2023-02-22T11:32:01.577Z,986.7482
2023-02-22T11:33:03.712Z,986.7757
2023-02-22T11:34:01.547Z,986.8046
2023-02-22T11:35:09.064Z,986.7912
2023-02-22T11:36:01.470Z,986.7521
2023-02-22T11:37:01.957Z,986.7829
2023-02-22T11:38:01.402Z,986.7121
2023-02-22T11:39:01.885Z,986.741
2023-02-22T11:40:01.401Z,986.7098
2023-02-22T11:41:01.939Z,986.5706
2023-02-22T11:42:02.982Z,986.7829
2023-02-22T11:43:01.778Z,986.6756
2023-02-22T11:44:01.322Z,986.4828
2023-02-22T11:45:03.467Z,986.6756
2023-02-22T11:46:04.035Z,986.5037
2023-02-22T11:47:01.792Z,986.7091
2023-02-22T11:48:02.268Z,986.6349
2023-02-22T11:49:03.384Z,986.5584
2023-02-22T11:50:03.866Z,986.4565
2023-02-22T11:51:01.635Z,986.6254